createdAt,value
2022-09-13T00:00:37.688Z,10.70
2022-09-13T00:01:39.815Z,11.23
2022-09-13T00:02:41.972Z,11.68
2022-09-13T00:03:44.506Z,11.32
2022-09-13T00:04:46.641Z,12.10
2022-09-13T00:05:49.166Z,12.18
2022-09-13T00:06:51.340Z,12.02
2022-09-13T00:07:53.679Z,10.60
2022-09-13T00:08:56.023Z,12.25
2022-09-13T00:09:58.122Z,12.93
2022-09-13T00:11:00.365Z,11.38
2022-09-13T00:12:02.657Z,11.95
2022-09-13T00:13:06.896Z,12.63
2022-09-13T00:14:09.018Z,12.18
2022-09-13T00:15:11.908Z,10.95
2022-09-13T00:16:16.098Z,12.18
2022-09-13T00:17:18.411Z,12.05
2022-09-13T00:18:20.583Z,12.10
2022-09-13T00:19:22.702Z,12.23
2022-09-13T00:20:24.829Z,14.20
2022-09-13T00:21:27.844Z,13.10
2022-09-13T00:22:30.023Z,12.48
2022-09-13T00:23:32.172Z,13.85
2022-09-13T00:24:34.336Z,12.85
2022-09-13T00:25:36.807Z,13.50
2022-09-13T00:26:38.953Z,12.30
2022-09-13T00:27:41.065Z,13.35
2022-09-13T00:28:45.361Z,12.38
2022-09-13T00:29:47.640Z,13.70
2022-09-13T00:30:52.255Z,13.75
2022-09-13T00:31:54.570Z,12.85
2022-09-13T00:32:56.969Z,12.45
2022-09-13T00:34:00.802Z,14.50
2022-09-13T00:35:05.337Z,14.48
2022-09-13T00:36:09.479Z,13.77
2022-09-13T00:37:11.594Z,12.65
2022-09-13T00:38:13.736Z,13.18
2022-09-13T00:39:15.852Z,13.23
2022-09-13T00:40:18.155Z,13.90
2022-09-13T00:41:21.501Z,14.38
2022-09-13T00:42:32.782Z,13.85
2022-09-13T00:43:42.918Z,13.52
2022-09-13T00:45:00.629Z,12.27
2022-09-13T00:46:02.803Z,13.15
2022-09-13T00:47:05.284Z,11.88
2022-09-13T00:48:15.935Z,12.90
2022-09-13T00:49:22.988Z,12.65
2022-09-13T00:50:38.416Z,13.05
2022-09-13T00:51:46.318Z,12.80
2022-09-13T00:52:55.908Z,14.02
2022-09-13T00:53:59.840Z,15.45
2022-09-13T00:55:08.855Z,12.88
2022-09-13T00:56:21.434Z,12.73
2022-09-13T00:57:24.739Z,12.55
2022-09-13T00:58:29.271Z,13.48
2022-09-13T00:59:52.842Z,13.85
2022-09-13T01:00:59.834Z,13.70
2022-09-13T01:02:04.516Z,11.52
2022-09-13T01:03:11.871Z,13.63
2022-09-13T01:04:15.320Z,12.52
2022-09-13T01:05:20.798Z,12.85
2022-09-13T01:06:29.386Z,12.85
2022-09-13T01:07:31.663Z,13.40
2022-09-13T01:08:36.283Z,13.35
2022-09-13T01:09:44.162Z,14.40
2022-09-13T01:10:49.491Z,13.75
2022-09-13T01:12:04.612Z,12.45
2022-09-13T01:13:14.866Z,13.65
2022-09-13T01:14:18.849Z,12.65
2022-09-13T01:15:21.061Z,12.32
2022-09-13T01:16:23.608Z,13.70
2022-09-13T01:17:28.386Z,11.90
2022-09-13T01:18:30.565Z,12.93
2022-09-13T01:19:32.778Z,13.40
2022-09-13T01:20:58.684Z,12.65
2022-09-13T01:22:06.887Z,11.55
2022-09-13T01:23:45.915Z,12.60
2022-09-13T01:25:03.404Z,12.38
2022-09-13T01:26:44.080Z,13.45
2022-09-13T01:28:03.681Z,12.07
2022-09-13T01:29:41.017Z,11.82
2022-09-13T01:31:03.883Z,11.52
2022-09-13T01:32:11.891Z,12.18
2022-09-13T01:33:52.490Z,12.48
2022-09-13T01:35:07.438Z,11.73
2022-09-13T01:36:15.727Z,11.80
2022-09-13T01:37:38.046Z,11.50
2022-09-13T01:38:49.490Z,11.07
2022-09-13T01:40:05.739Z,11.00
2022-09-13T01:41:31.641Z,12.07
2022-09-13T01:42:47.158Z,11.23
2022-09-13T01:44:13.426Z,10.60
2022-09-13T01:45:33.955Z,11.43
2022-09-13T01:46:57.933Z,9.95
2022-09-13T01:48:12.232Z,10.70
2022-09-13T01:49:25.626Z,10.50
2022-09-13T01:50:51.902Z,10.15
2022-09-13T01:51:57.625Z,11.38
2022-09-13T01:53:32.182Z,11.90
2022-09-13T01:54:40.819Z,10.38
2022-09-13T01:55:54.000Z,11.48
2022-09-13T01:57:06.006Z,11.10
2022-09-13T01:58:21.366Z,11.00
2022-09-13T01:59:37.329Z,10.63
2022-09-13T02:00:48.307Z,9.88
2022-09-13T02:02:02.208Z,10.23
2022-09-13T02:03:14.269Z,10.35
2022-09-13T02:04:27.228Z,10.05
2022-09-13T02:05:40.532Z,9.35
2022-09-13T02:07:03.798Z,9.95
2022-09-13T02:08:13.233Z,10.50
2022-09-13T02:09:25.027Z,10.07
2022-09-13T02:10:33.942Z,10.43
2022-09-13T02:11:39.974Z,9.55
2022-09-13T02:12:43.657Z,10.82
2022-09-13T02:14:02.071Z,10.88
2022-09-13T02:15:14.892Z,10.73
2022-09-13T02:16:26.425Z,10.77
2022-09-13T02:17:34.228Z,10.20
2022-09-13T02:18:41.183Z,10.77
2022-09-13T02:20:08.979Z,11.38
2022-09-13T02:21:17.132Z,10.10
2022-09-13T02:22:25.477Z,10.73
2022-09-13T02:23:38.039Z,10.85
2022-09-13T02:24:45.273Z,10.02
2022-09-13T02:25:49.730Z,9.57
2022-09-13T02:26:54.623Z,11.20
2022-09-13T02:28:02.752Z,10.95
2022-09-13T02:29:10.321Z,10.60
2022-09-13T02:30:14.369Z,11.05
2022-09-13T02:31:29.984Z,11.48
2022-09-13T02:32:38.367Z,10.68
2022-09-13T02:33:47.386Z,11.43
2022-09-13T02:34:56.610Z,10.82
2022-09-13T02:36:10.003Z,10.93
2022-09-13T02:37:13.210Z,10.73
2022-09-13T02:38:24.498Z,10.25
2022-09-13T02:39:30.556Z,11.07
2022-09-13T02:40:40.583Z,10.75
2022-09-13T02:42:00.362Z,10.40
2022-09-13T02:43:10.673Z,11.18
2022-09-13T02:44:28.411Z,11.27
2022-09-13T02:45:42.394Z,10.50
2022-09-13T02:46:44.516Z,11.25
2022-09-13T02:48:00.211Z,11.80
2022-09-13T02:49:18.511Z,11.23
2022-09-13T02:50:48.728Z,10.52
2022-09-13T02:51:57.265Z,10.27
2022-09-13T02:53:17.773Z,10.63
2022-09-13T02:54:31.176Z,10.27
2022-09-13T02:55:54.413Z,9.80
2022-09-13T02:57:19.680Z,11.18
2022-09-13T02:58:36.005Z,11.75
2022-09-13T02:59:38.208Z,11.10
2022-09-13T03:00:41.346Z,11.10
2022-09-13T03:01:55.065Z,11.68
2022-09-13T03:03:00.040Z,10.55
2022-09-13T03:04:03.021Z,10.75
2022-09-13T03:05:05.633Z,10.52
2022-09-13T03:06:08.114Z,10.73
2022-09-13T03:07:12.009Z,10.88
2022-09-13T03:08:16.345Z,11.20
2022-09-13T03:09:19.760Z,10.85
2022-09-13T03:10:23.207Z,10.88
2022-09-13T03:12:07.058Z,11.98
2022-09-13T03:13:44.735Z,11.30
2022-09-13T03:15:22.343Z,10.57
2022-09-13T03:16:51.565Z,11.02
2022-09-13T03:18:02.536Z,11.27
2022-09-13T03:20:34.734Z,10.32
2022-09-13T03:21:55.204Z,12.35
2022-09-13T03:23:17.734Z,11.27
2022-09-13T03:24:28.912Z,10.95
2022-09-13T03:26:12.290Z,10.68
2022-09-13T03:27:34.629Z,11.18
2022-09-13T03:28:54.882Z,11.25
2022-09-13T03:30:06.665Z,10.68
2022-09-13T03:31:20.356Z,10.68
2022-09-13T03:32:57.256Z,10.35
2022-09-13T03:34:10.489Z,10.70
2022-09-13T03:35:34.628Z,10.25
2022-09-13T03:36:46.193Z,10.82
2022-09-13T03:38:03.780Z,10.63
2022-09-13T03:39:37.090Z,10.55
2022-09-13T03:41:09.007Z,10.27
2022-09-13T03:42:34.372Z,10.52
2022-09-13T03:43:43.140Z,10.40
2022-09-13T03:44:49.244Z,10.55
2022-09-13T03:46:01.108Z,10.70
2022-09-13T03:47:36.507Z,10.18
2022-09-13T03:48:41.566Z,10.57
2022-09-13T03:49:44.427Z,11.48
2022-09-13T03:50:48.822Z,10.60
2022-09-13T03:51:52.837Z,11.23
2022-09-13T03:53:03.469Z,10.88
2022-09-13T03:54:15.017Z,10.85
2022-09-13T03:55:21.169Z,10.48
2022-09-13T03:56:23.298Z,12.15
2022-09-13T03:57:25.391Z,11.63
2022-09-13T03:58:27.614Z,12.77
2022-09-13T03:59:29.707Z,12.20
2022-09-13T04:00:32.068Z,12.43
2022-09-13T04:01:34.291Z,12.80
2022-09-13T04:02:36.887Z,12.20
2022-09-13T04:03:39.627Z,11.55
2022-09-13T04:04:43.113Z,11.52
2022-09-13T04:05:46.352Z,11.85
2022-09-13T04:06:48.550Z,11.30
2022-09-13T04:07:50.659Z,12.27
2022-09-13T04:08:52.756Z,12.27
2022-09-13T04:09:54.894Z,12.40
2022-09-13T04:10:57.091Z,12.65
2022-09-13T04:11:59.248Z,13.00
2022-09-13T04:13:01.837Z,12.18
2022-09-13T04:14:05.321Z,11.80
2022-09-13T04:15:08.305Z,13.68
2022-09-13T04:16:10.450Z,11.95
2022-09-13T04:17:13.660Z,12.48
2022-09-13T04:18:16.281Z,12.60
2022-09-13T04:19:18.441Z,13.82
2022-09-13T04:20:20.937Z,12.32
2022-09-13T04:21:23.079Z,12.07
2022-09-13T04:22:25.208Z,12.65
2022-09-13T04:23:29.437Z,12.60
2022-09-13T04:24:31.694Z,11.65
2022-09-13T04:25:33.961Z,13.10
2022-09-13T04:26:36.166Z,14.18
2022-09-13T04:27:38.320Z,12.40
2022-09-13T04:28:40.495Z,13.23
2022-09-13T04:30:22.010Z,13.07
2022-09-13T04:31:31.791Z,11.73
2022-09-13T04:32:33.950Z,13.20
2022-09-13T04:33:36.921Z,13.65
2022-09-13T04:34:39.233Z,12.27
2022-09-13T04:35:41.536Z,12.52
2022-09-13T04:36:43.654Z,13.52
2022-09-13T04:37:46.293Z,13.35
2022-09-13T04:38:48.472Z,13.68
2022-09-13T04:39:50.693Z,13.55
2022-09-13T04:40:54.882Z,12.88
2022-09-13T04:41:57.232Z,12.90
2022-09-13T04:43:01.145Z,12.45
2022-09-13T04:44:03.768Z,12.63
2022-09-13T04:45:06.613Z,12.70
2022-09-13T04:46:08.762Z,12.02
2022-09-13T04:47:10.970Z,12.38
2022-09-13T04:48:13.070Z,12.23
2022-09-13T04:49:16.623Z,13.80
2022-09-13T04:50:18.774Z,12.80
2022-09-13T04:51:21.833Z,12.55
2022-09-13T04:52:24.074Z,13.38
2022-09-13T04:53:26.187Z,13.65
2022-09-13T04:54:28.367Z,13.30
2022-09-13T04:55:30.520Z,13.68
2022-09-13T04:56:32.857Z,13.35
2022-09-13T04:57:34.943Z,12.18
2022-09-13T04:58:37.179Z,12.75
2022-09-13T04:59:39.338Z,12.23
2022-09-13T05:00:41.484Z,13.18
2022-09-13T05:01:44.121Z,13.32
2022-09-13T05:02:46.397Z,13.50
2022-09-13T05:03:48.595Z,11.80
2022-09-13T05:04:50.770Z,13.32
2022-09-13T05:05:52.893Z,13.00
2022-09-13T05:06:55.032Z,13.50
2022-09-13T05:07:57.233Z,13.48
2022-09-13T05:08:59.406Z,12.20
2022-09-13T05:10:01.497Z,13.20
2022-09-13T05:11:04.295Z,12.60
2022-09-13T05:12:06.586Z,13.30
2022-09-13T05:13:08.781Z,11.98
2022-09-13T05:14:11.401Z,13.40
2022-09-13T05:15:13.685Z,12.05
2022-09-13T05:16:15.827Z,12.93
2022-09-13T05:17:17.951Z,12.50
2022-09-13T05:18:20.055Z,12.82
2022-09-13T05:19:22.326Z,13.07
2022-09-13T05:20:24.558Z,13.35
2022-09-13T05:21:27.885Z,12.60
2022-09-13T05:22:29.995Z,12.65
2022-09-13T05:23:32.559Z,11.77
2022-09-13T05:24:34.718Z,13.00
2022-09-13T05:25:36.874Z,12.48
2022-09-13T05:26:39.077Z,12.27
2022-09-13T05:27:41.185Z,12.55
2022-09-13T05:28:43.741Z,10.95
2022-09-13T05:29:45.859Z,12.15
2022-09-13T05:31:01.832Z,11.30
2022-09-13T05:32:04.387Z,12.25
2022-09-13T05:33:06.540Z,11.70
2022-09-13T05:34:14.141Z,10.77
2022-09-13T05:35:16.867Z,10.35
2022-09-13T05:36:19.698Z,10.45
2022-09-13T05:37:21.885Z,11.27
2022-09-13T05:38:24.567Z,9.68
2022-09-13T05:39:33.863Z,11.27
2022-09-13T05:40:46.713Z,11.38
2022-09-13T05:41:49.005Z,10.73
2022-09-13T05:42:53.109Z,11.52
2022-09-13T05:43:59.398Z,11.27
2022-09-13T05:45:05.440Z,11.02
2022-09-13T05:46:11.657Z,12.27
2022-09-13T05:47:14.281Z,11.35
2022-09-13T05:48:16.472Z,12.25
2022-09-13T05:49:18.633Z,12.32
2022-09-13T05:50:45.088Z,12.52
2022-09-13T05:51:43.397Z,11.88
2022-09-13T05:52:51.108Z,13.00
2022-09-13T05:53:54.737Z,13.27
2022-09-13T05:54:56.860Z,14.68
2022-09-13T05:55:59.307Z,12.98
2022-09-13T05:57:01.471Z,14.77
2022-09-13T05:58:03.848Z,13.57
2022-09-13T05:59:05.971Z,13.43
2022-09-13T06:00:08.672Z,13.15
2022-09-13T06:01:16.396Z,13.43
2022-09-13T06:02:18.587Z,13.70
2022-09-13T06:03:20.824Z,13.60
2022-09-13T06:04:22.996Z,12.55
2022-09-13T06:05:29.859Z,15.20
2022-09-13T06:06:35.369Z,14.13
2022-09-13T06:07:40.817Z,13.23
2022-09-13T06:08:43.523Z,13.18
2022-09-13T06:09:45.685Z,12.73
2022-09-13T06:10:55.751Z,11.90
2022-09-13T06:11:57.852Z,13.18
2022-09-13T06:13:00.095Z,14.10
2022-09-13T06:14:02.275Z,13.50
2022-09-13T06:15:04.714Z,13.90
2022-09-13T06:16:09.784Z,14.70
2022-09-13T06:17:12.079Z,13.27
2022-09-13T06:18:14.241Z,13.50
2022-09-13T06:19:16.343Z,14.45
2022-09-13T06:20:18.510Z,12.65
2022-09-13T06:21:26.964Z,14.30
2022-09-13T06:22:33.287Z,13.23
2022-09-13T06:23:35.713Z,12.82
2022-09-13T06:24:38.385Z,12.43
2022-09-13T06:25:41.099Z,13.43
2022-09-13T06:26:43.217Z,15.00
2022-09-13T06:27:45.437Z,13.32
2022-09-13T06:28:49.135Z,14.85
2022-09-13T06:29:51.395Z,13.00
2022-09-13T06:30:59.878Z,15.20
2022-09-13T06:32:03.554Z,15.00
2022-09-13T06:33:05.691Z,12.85
2022-09-13T06:34:07.880Z,14.07
2022-09-13T06:35:10.026Z,13.68
2022-09-13T06:36:18.312Z,15.02
2022-09-13T06:37:21.643Z,14.07
2022-09-13T06:38:23.979Z,14.52
2022-09-13T06:39:26.100Z,15.60
2022-09-13T06:40:28.893Z,13.50
2022-09-13T06:41:31.295Z,14.20
2022-09-13T06:42:35.245Z,14.95
2022-09-13T06:43:38.617Z,14.05
2022-09-13T06:44:40.732Z,14.15
2022-09-13T06:45:42.850Z,13.32
2022-09-13T06:46:45.145Z,14.48
2022-09-13T06:47:47.286Z,13.35
2022-09-13T06:48:49.626Z,15.05
2022-09-13T06:49:51.937Z,14.57
2022-09-13T06:50:58.472Z,14.90
2022-09-13T06:52:00.598Z,13.93
2022-09-13T06:53:02.884Z,13.55
2022-09-13T06:54:05.916Z,13.25
2022-09-13T06:55:12.453Z,14.27
2022-09-13T06:56:21.300Z,15.43
2022-09-13T06:57:23.427Z,15.18
2022-09-13T06:58:25.591Z,15.25
2022-09-13T06:59:27.669Z,15.23
2022-09-13T07:00:29.794Z,13.50
2022-09-13T07:01:34.680Z,15.25
2022-09-13T07:02:36.905Z,14.52
2022-09-13T07:03:40.951Z,14.90
2022-09-13T07:04:43.117Z,14.52
2022-09-13T07:05:45.224Z,14.57
2022-09-13T07:06:49.492Z,13.68
2022-09-13T07:07:51.633Z,13.40
2022-09-13T07:08:54.885Z,13.57
2022-09-13T07:09:57.041Z,13.02
2022-09-13T07:10:59.151Z,12.80
2022-09-13T07:12:01.445Z,14.18
2022-09-13T07:13:03.597Z,13.55
2022-09-13T07:14:09.075Z,14.32
2022-09-13T07:15:11.455Z,13.25
2022-09-13T07:16:13.641Z,11.85
2022-09-13T07:17:15.769Z,12.73
2022-09-13T07:18:17.898Z,12.27
2022-09-13T07:19:26.500Z,13.38
2022-09-13T07:20:28.838Z,12.85
2022-09-13T07:21:32.344Z,12.75
2022-09-13T07:22:34.443Z,11.65
2022-09-13T07:23:39.382Z,11.48
2022-09-13T07:24:41.505Z,12.15
2022-09-13T07:25:43.650Z,11.70
2022-09-13T07:26:46.729Z,12.43
2022-09-13T07:27:48.828Z,11.65
2022-09-13T07:28:54.753Z,10.98
2022-09-13T07:29:57.826Z,11.32
2022-09-13T07:31:13.411Z,11.43
2022-09-13T07:32:15.654Z,10.68
2022-09-13T07:33:18.022Z,12.55
2022-09-13T07:34:23.117Z,11.35
2022-09-13T07:35:25.189Z,12.07
2022-09-13T07:36:29.105Z,11.70
2022-09-13T07:37:31.229Z,11.05
2022-09-13T07:38:37.311Z,10.23
2022-09-13T07:39:39.695Z,9.65
2022-09-13T07:40:41.879Z,8.60
2022-09-13T07:41:44.605Z,7.78
2022-09-13T07:42:46.791Z,6.88
2022-09-13T07:43:49.725Z,6.63
2022-09-13T07:44:51.790Z,7.13
2022-09-13T07:46:01.601Z,6.88
2022-09-13T07:47:03.924Z,6.70
2022-09-13T07:48:06.086Z,6.57
2022-09-13T07:49:08.284Z,6.57
2022-09-13T07:50:10.415Z,5.45
2022-09-13T07:51:13.879Z,5.25
2022-09-13T07:52:16.067Z,5.43
2022-09-13T07:53:18.162Z,5.38
2022-09-13T07:54:20.731Z,4.88
2022-09-13T07:55:22.926Z,5.45
2022-09-13T07:56:28.023Z,5.40
2022-09-13T07:57:30.172Z,6.03
2022-09-13T07:58:34.011Z,5.32
2022-09-13T07:59:36.141Z,5.78
2022-09-13T08:00:38.275Z,4.97
2022-09-13T08:01:43.219Z,5.63
2022-09-13T08:02:45.455Z,4.60
2022-09-13T08:03:53.232Z,5.20
2022-09-13T08:04:55.823Z,4.30
2022-09-13T08:05:58.000Z,4.25
2022-09-13T08:07:00.178Z,4.72
2022-09-13T08:08:02.385Z,4.68
2022-09-13T08:09:06.317Z,3.75
2022-09-13T08:10:08.844Z,3.30
2022-09-13T08:11:16.067Z,3.70
2022-09-13T08:12:18.174Z,3.90
2022-09-13T08:13:20.651Z,3.08
2022-09-13T08:14:24.081Z,3.22
2022-09-13T08:15:26.852Z,3.97
2022-09-13T08:16:30.765Z,3.30
2022-09-13T08:17:32.854Z,3.10
2022-09-13T08:18:34.961Z,2.97
2022-09-13T08:19:37.087Z,2.85
2022-09-13T08:20:39.877Z,2.40
2022-09-13T08:21:43.533Z,2.55
2022-09-13T08:22:45.930Z,3.17
2022-09-13T08:23:48.333Z,2.63
2022-09-13T08:24:50.713Z,2.75
2022-09-13T08:25:53.797Z,2.20
2022-09-13T08:26:56.051Z,1.88
2022-09-13T08:27:58.171Z,2.35
2022-09-13T08:29:02.033Z,1.70
2022-09-13T08:30:05.403Z,1.80
2022-09-13T08:31:08.829Z,1.65
2022-09-13T08:32:11.075Z,1.55
2022-09-13T08:33:13.599Z,1.67
2022-09-13T08:34:16.651Z,1.80
2022-09-13T08:35:18.718Z,1.65
2022-09-13T08:36:23.826Z,1.20
2022-09-13T08:37:25.923Z,1.65
2022-09-13T08:38:28.981Z,1.50
2022-09-13T08:39:33.455Z,1.20
2022-09-13T08:40:44.957Z,2.78
2022-09-13T08:42:11.600Z,1.15
2022-09-13T08:43:32.000Z,1.40
2022-09-13T08:44:38.435Z,1.20
2022-09-13T08:45:40.983Z,1.27
2022-09-13T08:46:46.872Z,1.13
2022-09-13T08:48:13.963Z,1.25
2022-09-13T08:49:32.123Z,1.27
2022-09-13T08:50:36.293Z,0.77
2022-09-13T08:51:47.377Z,1.00
2022-09-13T08:53:19.802Z,2.13
2022-09-13T08:54:22.293Z,1.35
2022-09-13T08:55:49.249Z,1.10
2022-09-13T08:57:17.748Z,1.23
2022-09-13T08:58:50.920Z,1.20
2022-09-13T09:00:05.210Z,1.45
2022-09-13T09:01:33.989Z,1.10
2022-09-13T09:02:48.317Z,1.38
2022-09-13T09:04:25.633Z,0.70
2022-09-13T09:05:31.280Z,0.75
2022-09-13T09:06:35.513Z,1.88
2022-09-13T09:07:46.237Z,0.82
2022-09-13T09:10:23.352Z,0.80
2022-09-13T09:11:28.386Z,0.70
2022-09-13T09:12:43.036Z,0.80
2022-09-13T09:13:57.046Z,1.00
2022-09-13T09:15:05.242Z,0.75
2022-09-13T09:16:24.124Z,1.02
2022-09-13T09:17:31.005Z,0.95
2022-09-13T09:18:39.620Z,1.05
2022-09-13T09:19:46.403Z,0.82
2022-09-13T09:20:51.970Z,0.80
2022-09-13T09:21:54.241Z,1.10
2022-09-13T09:22:56.410Z,0.95
2022-09-13T09:24:02.702Z,1.15
2022-09-13T09:25:05.409Z,1.08
2022-09-13T09:26:17.615Z,1.15
2022-09-13T09:27:21.449Z,1.05
2022-09-13T09:28:25.432Z,1.10
2022-09-13T09:29:32.680Z,0.75
2022-09-13T09:30:46.134Z,0.75
2022-09-13T09:32:25.486Z,0.45
2022-09-13T09:33:44.554Z,0.43
2022-09-13T09:35:14.061Z,1.00
2022-09-13T09:36:28.078Z,0.85
2022-09-13T09:37:31.500Z,0.93
2022-09-13T09:38:42.696Z,0.70
2022-09-13T09:39:45.178Z,0.80
2022-09-13T09:40:47.421Z,0.63
2022-09-13T09:41:49.622Z,0.77
2022-09-13T09:42:51.851Z,0.60
2022-09-13T09:44:28.668Z,0.70
2022-09-13T09:45:34.647Z,1.60
2022-09-13T09:46:40.243Z,1.00
2022-09-13T09:47:51.441Z,0.70
2022-09-13T09:49:02.215Z,0.60
2022-09-13T09:51:16.304Z,0.70
2022-09-13T09:52:23.278Z,0.88
2022-09-13T09:53:36.976Z,0.88
2022-09-13T09:54:50.362Z,0.85
2022-09-13T09:56:12.169Z,0.77
2022-09-13T09:57:14.415Z,0.73
2022-09-13T09:58:16.992Z,1.30
2022-09-13T09:59:29.069Z,1.45
2022-09-13T10:00:34.292Z,0.60
2022-09-13T10:01:38.282Z,0.75
2022-09-13T10:02:44.704Z,0.60
2022-09-13T10:03:52.665Z,0.65
2022-09-13T10:05:00.733Z,0.60
2022-09-13T10:06:18.555Z,0.75
2022-09-13T10:07:30.317Z,0.60
2022-09-13T10:08:36.970Z,0.50
2022-09-13T10:09:39.625Z,0.70
2022-09-13T10:10:52.775Z,0.60
2022-09-13T10:11:57.663Z,0.90
2022-09-13T10:13:00.798Z,0.57
2022-09-13T10:14:03.919Z,0.60
2022-09-13T10:15:17.691Z,0.68
2022-09-13T10:16:29.706Z,1.08
2022-09-13T10:17:31.900Z,0.70
2022-09-13T10:18:45.414Z,0.43
2022-09-13T10:19:54.335Z,0.60
2022-09-13T10:21:19.660Z,0.80
2022-09-13T10:22:23.001Z,1.50
2022-09-13T10:23:25.175Z,0.47
2022-09-13T10:24:28.423Z,0.70
2022-09-13T10:25:31.855Z,0.80
2022-09-13T10:26:34.393Z,0.85
2022-09-13T10:27:42.779Z,1.00
2022-09-13T10:28:59.432Z,0.60
2022-09-13T10:30:04.298Z,0.85
2022-09-13T10:31:14.843Z,0.65
2022-09-13T10:32:19.812Z,0.70
2022-09-13T10:33:30.145Z,0.65
2022-09-13T10:34:36.312Z,0.57
2022-09-13T10:35:38.614Z,0.55
2022-09-13T10:36:59.340Z,0.63
2022-09-13T10:38:01.688Z,0.63
2022-09-13T10:39:07.285Z,0.50
2022-09-13T10:40:28.969Z,0.50
2022-09-13T10:41:35.124Z,0.50
2022-09-13T10:42:37.254Z,1.45
2022-09-13T10:43:39.786Z,0.60
2022-09-13T10:44:58.268Z,0.95
2022-09-13T10:46:03.711Z,0.52
2022-09-13T10:47:12.421Z,0.70
2022-09-13T10:48:16.955Z,0.85
2022-09-13T10:49:47.226Z,0.63
2022-09-13T10:51:04.648Z,0.88
2022-09-13T10:52:27.188Z,0.52
2022-09-13T10:53:41.053Z,0.50
2022-09-13T10:54:43.434Z,0.85
2022-09-13T10:55:53.936Z,0.68
2022-09-13T10:56:56.381Z,0.85
2022-09-13T10:58:07.626Z,0.73
2022-09-13T10:59:30.730Z,0.80
2022-09-13T11:01:05.173Z,0.68
2022-09-13T11:02:11.622Z,0.55
2022-09-13T11:03:37.690Z,0.63
2022-09-13T11:04:56.722Z,0.68
2022-09-13T11:06:10.658Z,0.75
2022-09-13T11:07:26.271Z,0.50
2022-09-13T11:08:31.475Z,0.70
2022-09-13T11:09:39.878Z,0.60
2022-09-13T11:11:02.959Z,1.10
2022-09-13T11:12:43.151Z,0.50
2022-09-13T11:14:03.237Z,0.75
2022-09-13T11:15:18.786Z,0.85
2022-09-13T11:16:39.709Z,0.70
2022-09-13T11:18:09.756Z,0.82
2022-09-13T11:19:17.870Z,0.50
2022-09-13T11:20:32.302Z,0.63
2022-09-13T11:22:13.270Z,0.73
2022-09-13T11:23:30.326Z,0.63
2022-09-13T11:24:54.122Z,0.60
2022-09-13T11:26:19.490Z,0.52
2022-09-13T11:27:37.759Z,0.88
2022-09-13T11:29:10.636Z,1.00
2022-09-13T11:30:19.555Z,0.93
2022-09-13T11:31:40.450Z,0.98
2022-09-13T11:32:55.862Z,0.85
2022-09-13T11:34:10.274Z,1.45
2022-09-13T11:35:27.043Z,0.88
2022-09-13T11:37:04.683Z,1.13
2022-09-13T11:38:25.487Z,0.90
2022-09-13T11:40:58.586Z,0.75
2022-09-13T11:42:25.639Z,1.00
2022-09-13T11:43:52.742Z,1.15
2022-09-13T11:45:19.361Z,0.60
2022-09-13T11:46:29.083Z,0.60
2022-09-13T11:47:53.063Z,0.50
2022-09-13T11:49:21.977Z,0.80
2022-09-13T11:50:40.636Z,0.80
2022-09-13T11:52:12.984Z,0.65
2022-09-13T11:53:40.905Z,1.13
2022-09-13T11:55:06.478Z,0.80
2022-09-13T11:56:19.732Z,0.60
2022-09-13T11:57:31.320Z,0.73
2022-09-13T11:58:39.580Z,0.57
2022-09-13T11:59:53.383Z,1.23
2022-09-13T12:01:01.676Z,0.73
2022-09-13T12:02:24.391Z,0.90
2022-09-13T12:03:31.026Z,0.80
2022-09-13T12:05:20.450Z,0.40
2022-09-13T12:06:28.264Z,0.75
2022-09-13T12:07:34.978Z,0.45
2022-09-13T12:08:42.762Z,0.95
2022-09-13T12:09:56.638Z,0.50
2022-09-13T12:11:16.216Z,1.10
2022-09-13T12:12:21.607Z,0.60
2022-09-13T12:13:36.130Z,0.40
2022-09-13T12:15:07.884Z,0.65
2022-09-13T12:16:23.358Z,1.20
2022-09-13T12:17:30.857Z,0.90
2022-09-13T12:18:41.247Z,0.65
2022-09-13T12:19:47.709Z,0.68
2022-09-13T12:21:00.897Z,0.82
2022-09-13T12:22:03.917Z,0.98
2022-09-13T12:23:14.351Z,0.57
2022-09-13T12:24:22.154Z,0.77
2022-09-13T12:25:39.229Z,1.10
2022-09-13T12:27:05.773Z,0.60
2022-09-13T12:28:28.021Z,0.75
2022-09-13T12:29:51.482Z,0.60
2022-09-13T12:31:10.095Z,0.90
2022-09-13T12:32:13.679Z,0.90
2022-09-13T12:33:16.570Z,0.63
2022-09-13T12:34:28.604Z,0.52
2022-09-13T12:35:36.446Z,0.80
2022-09-13T12:36:50.208Z,0.60
2022-09-13T12:38:10.366Z,0.77
2022-09-13T12:39:45.005Z,0.50
2022-09-13T12:41:13.870Z,1.25
2022-09-13T12:42:22.229Z,0.60
2022-09-13T12:43:47.400Z,0.70
2022-09-13T12:45:33.633Z,0.77
2022-09-13T12:46:57.796Z,0.70
2022-09-13T12:48:30.799Z,0.63
2022-09-13T12:51:50.772Z,0.70
2022-09-13T12:53:01.739Z,0.70
2022-09-13T12:54:22.518Z,0.50
2022-09-13T12:57:08.826Z,0.93
2022-09-13T12:58:34.316Z,0.75
2022-09-13T12:59:58.921Z,1.50
2022-09-13T13:01:11.992Z,1.20
2022-09-13T13:02:44.373Z,0.80
2022-09-13T13:03:50.235Z,0.80
2022-09-13T13:04:55.698Z,0.80
2022-09-13T13:06:17.685Z,0.68
2022-09-13T13:07:23.283Z,1.05
2022-09-13T13:08:29.593Z,1.02
2022-09-13T13:09:44.555Z,0.63
2022-09-13T13:11:11.628Z,0.65
2022-09-13T13:12:38.902Z,0.93
2022-09-13T13:13:44.759Z,0.85
2022-09-13T13:14:48.238Z,0.63
2022-09-13T13:15:50.510Z,0.73
2022-09-13T13:16:54.412Z,0.65
2022-09-13T13:17:57.272Z,0.60
2022-09-13T13:19:26.109Z,0.70
2022-09-13T13:21:05.770Z,0.73
2022-09-13T13:22:42.132Z,0.98
2022-09-13T13:23:45.621Z,0.60
2022-09-13T13:24:48.284Z,0.80
2022-09-13T13:26:01.178Z,0.75
2022-09-13T13:27:34.329Z,0.50
2022-09-13T13:28:45.684Z,0.80
2022-09-13T13:30:26.426Z,0.73
2022-09-13T13:31:29.748Z,0.52
2022-09-13T13:32:32.043Z,0.70
2022-09-13T13:33:48.449Z,0.50
2022-09-13T13:34:50.701Z,0.40
2022-09-13T13:35:53.273Z,0.68
2022-09-13T13:37:26.226Z,1.02
2022-09-13T13:38:28.288Z,0.43
2022-09-13T13:39:30.406Z,0.70
2022-09-13T13:40:32.771Z,0.90
2022-09-13T13:41:41.451Z,0.73
2022-09-13T13:42:45.193Z,0.60
2022-09-13T13:43:47.372Z,0.70
2022-09-13T13:44:52.228Z,0.43
2022-09-13T13:46:26.709Z,1.17
2022-09-13T13:47:28.785Z,0.50
2022-09-13T13:48:41.675Z,0.80
2022-09-13T13:49:50.124Z,0.90
2022-09-13T13:51:10.792Z,0.55
2022-09-13T13:52:16.685Z,1.05
2022-09-13T13:53:33.723Z,0.40
2022-09-13T13:54:44.638Z,0.50
2022-09-13T13:56:06.254Z,0.55
2022-09-13T13:57:20.838Z,0.40
2022-09-13T13:58:44.957Z,0.57
2022-09-13T13:59:50.508Z,0.55
2022-09-13T14:00:55.013Z,0.30
2022-09-13T14:02:01.584Z,1.02
2022-09-13T14:03:26.342Z,0.57
2022-09-13T14:04:44.700Z,0.60
2022-09-13T14:06:03.038Z,0.40
2022-09-13T14:07:37.631Z,0.65
2022-09-13T14:08:46.573Z,0.95
2022-09-13T14:10:07.293Z,0.82
2022-09-13T14:11:29.851Z,0.52
2022-09-13T14:13:02.712Z,0.73
2022-09-13T14:14:37.310Z,1.13
2022-09-13T14:16:05.812Z,0.82
2022-09-13T14:17:26.265Z,0.73
2022-09-13T14:18:46.360Z,0.82
2022-09-13T14:19:55.616Z,0.77
2022-09-13T14:21:02.601Z,0.80
2022-09-13T14:22:15.105Z,0.95
2022-09-13T14:23:19.135Z,0.95
2022-09-13T14:24:24.502Z,0.90
2022-09-13T14:25:26.792Z,0.90
2022-09-13T14:26:28.935Z,0.50
2022-09-13T14:27:35.714Z,0.60
2022-09-13T14:28:39.059Z,1.05
2022-09-13T14:29:45.363Z,1.10
2022-09-13T14:30:47.614Z,1.17
2022-09-13T14:31:51.958Z,0.60
2022-09-13T14:32:57.215Z,0.80
2022-09-13T14:33:59.367Z,0.98
2022-09-13T14:35:07.281Z,0.68
2022-09-13T14:36:19.307Z,1.15
2022-09-13T14:37:27.124Z,1.10
2022-09-13T14:38:35.770Z,0.98
2022-09-13T14:39:37.972Z,1.00
2022-09-13T14:40:40.378Z,1.35
2022-09-13T14:41:42.470Z,1.10
2022-09-13T14:42:47.734Z,0.90
2022-09-13T14:43:50.186Z,0.95
2022-09-13T14:44:52.838Z,0.80
2022-09-13T14:46:19.312Z,1.25
2022-09-13T14:47:36.084Z,0.70
2022-09-13T14:48:57.252Z,0.98
2022-09-13T14:50:06.880Z,0.73
2022-09-13T14:51:27.778Z,0.95
2022-09-13T14:53:41.392Z,0.98
2022-09-13T14:54:48.519Z,1.02
2022-09-13T14:56:02.774Z,0.90
2022-09-13T14:57:09.083Z,0.80
2022-09-13T14:58:19.828Z,0.75
2022-09-13T15:00:39.188Z,1.08
2022-09-13T15:01:41.402Z,0.80
2022-09-13T15:02:59.656Z,0.80
2022-09-13T15:04:04.719Z,0.90
2022-09-13T15:05:14.174Z,1.00
2022-09-13T15:06:38.369Z,1.20
2022-09-13T15:07:41.983Z,0.63
2022-09-13T15:08:47.129Z,0.95
2022-09-13T15:09:50.548Z,0.60
2022-09-13T15:10:53.014Z,0.95
2022-09-13T15:11:58.142Z,0.80
2022-09-13T15:13:06.242Z,0.55
2022-09-13T15:14:28.559Z,1.00
2022-09-13T15:15:45.254Z,0.95
2022-09-13T15:16:53.313Z,0.80
2022-09-13T15:18:01.383Z,0.93
2022-09-13T15:19:37.193Z,1.10
2022-09-13T15:20:48.046Z,0.98
2022-09-13T15:21:50.875Z,1.02